sensor_id;sensor_type;location;lat;lon;timestamp;P1;durP1;ratioP1;P2;durP2;ratioP2
3873;SDS011;1952;50.872;6.692;2023-04-07T00:30:41;10.40;;;7.07;;
3873;SDS011;1952;50.872;6.692;2023-04-07T00:33:09;7.73;;;6.40;;
3873;SDS011;1952;50.872;6.692;2023-04-07T00:35:37;8.90;;;7.37;;
3873;SDS011;1952;50.872;6.692;2023-04-07T00:38:06;7.97;;;7.20;;
3873;SDS011;1952;50.872;6.692;2023-04-07T00:40:34;7.87;;;6.23;;
3873;SDS011;1952;50.872;6.692;2023-04-07T00:43:02;8.73;;;7.50;;
3873;SDS011;1952;50.872;6.692;2023-04-07T00:45:30;7.67;;;6.23;;
3873;SDS011;1952;50.872;6.692;2023-04-07T00:48:00;7.63;;;6.90;;
3873;SDS011;1952;50.872;6.692;2023-04-07T00:50:28;10.07;;;8.97;;
3873;SDS011;1952;50.872;6.692;2023-04-07T00:52:56;8.50;;;7.00;;
3873;SDS011;1952;50.872;6.692;2023-04-07T00:55:25;8.70;;;7.47;;
3873;SDS011;1952;50.872;6.692;2023-04-07T00:57:52;10.40;;;8.50;;
3873;SDS011;1952;50.872;6.692;2023-04-07T01:00:22;8.70;;;7.87;;
3873;SDS011;1952;50.872;6.692;2023-04-07T01:02:51;12.53;;;11.27;;
3873;SDS011;1952;50.872;6.692;2023-04-07T01:05:25;10.27;;;8.30;;
3873;SDS011;1952;50.872;6.692;2023-04-07T01:07:57;11.00;;;9.90;;
3873;SDS011;1952;50.872;6.692;2023-04-07T01:10:30;11.97;;;9.50;;
3873;SDS011;1952;50.872;6.692;2023-04-07T01:13:04;11.30;;;10.13;;
3873;SDS011;1952;50.872;6.692;2023-04-07T01:15:33;10.50;;;9.17;;
3873;SDS011;1952;50.872;6.692;2023-04-07T01:18:05;12.80;;;11.37;;
3873;SDS011;1952;50.872;6.692;2023-04-07T01:20:37;11.80;;;9.70;;
3873;SDS011;1952;50.872;6.692;2023-04-07T01:23:05;12.47;;;11.10;;
3873;SDS011;1952;50.872;6.692;2023-04-07T01:25:37;11.00;;;9.50;;
3873;SDS011;1952;50.872;6.692;2023-04-07T01:28:13;13.50;;;10.40;;
3873;SDS011;1952;50.872;6.692;2023-04-07T01:30:55;12.40;;;8.40;;
3873;SDS011;1952;50.872;6.692;2023-04-07T01:33:23;15.33;;;10.40;;
3873;SDS011;1952;50.872;6.692;2023-04-07T01:35:53;10.70;;;9.60;;
3873;SDS011;1952;50.872;6.692;2023-04-07T01:38:23;13.87;;;10.00;;
3873;SDS011;1952;50.872;6.692;2023-04-07T01:40:52;16.40;;;12.30;;
3873;SDS011;1952;50.872;6.692;2023-04-07T01:43:20;10.33;;;8.43;;
3873;SDS011;1952;50.872;6.692;2023-04-07T01:45:49;11.57;;;10.33;;
3873;SDS011;1952;50.872;6.692;2023-04-07T01:48:20;12.37;;;10.40;;
3873;SDS011;1952;50.872;6.692;2023-04-07T01:50:49;12.20;;;10.40;;
3873;SDS011;1952;50.872;6.692;2023-04-07T01:53:17;14.20;;;9.83;;
3873;SDS011;1952;50.872;6.692;2023-04-07T01:55:46;15.80;;;11.33;;
3873;SDS011;1952;50.872;6.692;2023-04-07T01:58:14;14.90;;;11.33;;
3873;SDS011;1952;50.872;6.692;2023-04-07T02:00:42;18.07;;;12.97;;
3873;SDS011;1952;50.872;6.692;2023-04-07T02:03:12;16.13;;;11.37;;
3873;SDS011;1952;50.872;6.692;2023-04-07T02:05:48;12.60;;;9.93;;
3873;SDS011;1952;50.872;6.692;2023-04-07T02:08:16;20.20;;;13.53;;
3873;SDS011;1952;50.872;6.692;2023-04-07T02:10:47;16.77;;;12.40;;
3873;SDS011;1952;50.872;6.692;2023-04-07T02:13:17;16.37;;;11.40;;
3873;SDS011;1952;50.872;6.692;2023-04-07T02:15:46;20.03;;;14.10;;
3873;SDS011;1952;50.872;6.692;2023-04-07T02:18:15;19.57;;;12.83;;
3873;SDS011;1952;50.872;6.692;2023-04-07T02:20:45;19.10;;;14.90;;
3873;SDS011;1952;50.872;6.692;2023-04-07T02:23:16;22.30;;;12.97;;
3873;SDS011;1952;50.872;6.692;2023-04-07T02:25:44;20.27;;;13.47;;
3873;SDS011;1952;50.872;6.692;2023-04-07T02:28:12;18.77;;;12.90;;
3873;SDS011;1952;50.872;6.692;2023-04-07T02:30:40;17.53;;;12.90;;
3873;SDS011;1952;50.872;6.692;2023-04-07T02:33:08;15.90;;;13.30;;
3873;SDS011;1952;50.872;6.692;2023-04-07T02:35:36;19.30;;;14.17;;
3873;SDS011;1952;50.872;6.692;2023-04-07T02:38:04;19.57;;;13.90;;
3873;SDS011;1952;50.872;6.692;2023-04-07T02:40:34;17.20;;;12.03;;
3873;SDS011;1952;50.872;6.692;2023-04-07T02:43:02;19.23;;;13.00;;
3873;SDS011;1952;50.872;6.692;2023-04-07T02:45:31;19.20;;;14.07;;
3873;SDS011;1952;50.872;6.692;2023-04-07T02:47:59;19.27;;;13.67;;
3873;SDS011;1952;50.872;6.692;2023-04-07T02:50:28;19.50;;;13.10;;
3873;SDS011;1952;50.872;6.692;2023-04-07T02:52:56;18.30;;;12.27;;
3873;SDS011;1952;50.872;6.692;2023-04-07T02:55:24;17.37;;;11.53;;
3873;SDS011;1952;50.872;6.692;2023-04-07T02:57:54;21.60;;;14.33;;
3873;SDS011;1952;50.872;6.692;2023-04-07T03:00:22;20.50;;;14.43;;
3873;SDS011;1952;50.872;6.692;2023-04-07T03:02:50;17.87;;;12.10;;
3873;SDS011;1952;50.872;6.692;2023-04-07T03:05:19;20.57;;;10.23;;
3873;SDS011;1952;50.872;6.692;2023-04-07T03:07:47;20.43;;;14.67;;
3873;SDS011;1952;50.872;6.692;2023-04-07T03:10:16;16.80;;;12.23;;
3873;SDS011;1952;50.872;6.692;2023-04-07T03:12:44;19.43;;;13.03;;
3873;SDS011;1952;50.872;6.692;2023-04-07T03:15:13;23.83;;;14.50;;
3873;SDS011;1952;50.872;6.692;2023-04-07T03:17:44;19.90;;;12.73;;
3873;SDS011;1952;50.872;6.692;2023-04-07T03:20:12;16.70;;;12.60;;
3873;SDS011;1952;50.872;6.692;2023-04-07T03:22:40;23.03;;;15.70;;
3873;SDS011;1952;50.872;6.692;2023-04-07T03:25:09;21.10;;;15.77;;
3873;SDS011;1952;50.872;6.692;2023-04-07T03:27:37;17.97;;;14.07;;
3873;SDS011;1952;50.872;6.692;2023-04-07T03:30:06;22.07;;;14.20;;
3873;SDS011;1952;50.872;6.692;2023-04-07T03:32:36;20.90;;;14.17;;
3873;SDS011;1952;50.872;6.692;2023-04-07T03:35:04;22.60;;;13.10;;
3873;SDS011;1952;50.872;6.692;2023-04-07T03:37:32;16.57;;;11.07;;
3873;SDS011;1952;50.872;6.692;2023-04-07T03:40:01;19.83;;;14.27;;
3873;SDS011;1952;50.872;6.692;2023-04-07T03:42:29;26.93;;;13.00;;
3873;SDS011;1952;50.872;6.692;2023-04-07T03:44:57;18.43;;;13.00;;
3873;SDS011;1952;50.872;6.692;2023-04-07T03:47:25;23.40;;;14.27;;
3873;SDS011;1952;50.872;6.692;2023-04-07T03:49:55;22.63;;;15.17;;
3873;SDS011;1952;50.872;6.692;2023-04-07T03:52:23;23.50;;;14.17;;
3873;SDS011;1952;50.872;6.692;2023-04-07T03:54:52;18.07;;;13.90;;
3873;SDS011;1952;50.872;6.692;2023-04-07T03:57:20;18.73;;;13.50;;
3873;SDS011;1952;50.872;6.692;2023-04-07T03:59:48;21.77;;;15.33;;
3873;SDS011;1952;50.872;6.692;2023-04-07T04:02:17;24.07;;;15.30;;
3873;SDS011;1952;50.872;6.692;2023-04-07T04:04:45;19.47;;;14.87;;
3873;SDS011;1952;50.872;6.692;2023-04-07T04:07:15;16.20;;;11.90;;
3873;SDS011;1952;50.872;6.692;2023-04-07T04:09:43;24.00;;;16.00;;
3873;SDS011;1952;50.872;6.692;2023-04-07T04:12:11;15.70;;;13.07;;
3873;SDS011;1952;50.872;6.692;2023-04-07T04:14:39;19.83;;;14.90;;
3873;SDS011;1952;50.872;6.692;2023-04-07T04:17:07;21.53;;;15.57;;
3873;SDS011;1952;50.872;6.692;2023-04-07T04:19:36;19.33;;;14.30;;
3873;SDS011;1952;50.872;6.692;2023-04-07T04:22:04;17.50;;;13.03;;
3873;SDS011;1952;50.872;6.692;2023-04-07T04:24:33;20.60;;;13.60;;
3873;SDS011;1952;50.872;6.692;2023-04-07T04:27:02;21.17;;;15.23;;
3873;SDS011;1952;50.872;6.692;2023-04-07T04:29:30;21.47;;;13.83;;
3873;SDS011;1952;50.872;6.692;2023-04-07T04:31:58;24.57;;;15.73;;
3873;SDS011;1952;50.872;6.692;2023-04-07T04:34:26;23.00;;;13.93;;
3873;SDS011;1952;50.872;6.692;2023-04-07T04:36:54;17.40;;;14.13;;
3873;SDS011;1952;50.872;6.692;2023-04-07T04:39:23;20.57;;;13.60;;
3873;SDS011;1952;50.872;6.692;2023-04-07T04:41:52;16.60;;;12.10;;
3873;SDS011;1952;50.872;6.692;2023-04-07T04:44:21;18.00;;;13.57;;
3873;SDS011;1952;50.872;6.692;2023-04-07T04:46:49;17.47;;;15.20;;
3873;SDS011;1952;50.872;6.692;2023-04-07T04:49:18;19.03;;;14.03;;
3873;SDS011;1952;50.872;6.692;2023-04-07T04:51:46;16.30;;;12.63;;
3873;SDS011;1952;50.872;6.692;2023-04-07T04:54:14;16.50;;;12.40;;
3873;SDS011;1952;50.872;6.692;2023-04-07T04:56:43;18.17;;;14.70;;
3873;SDS011;1952;50.872;6.692;2023-04-07T04:59:12;17.50;;;13.37;;
3873;SDS011;1952;50.872;6.692;2023-04-07T05:01:40;12.80;;;11.40;;
3873;SDS011;1952;50.872;6.692;2023-04-07T05:04:09;16.70;;;12.30;;
3873;SDS011;1952;50.872;6.692;2023-04-07T05:06:37;21.70;;;13.13;;
3873;SDS011;1952;50.872;6.692;2023-04-07T05:09:05;17.73;;;13.20;;
3873;SDS011;1952;50.872;6.692;2023-04-07T05:11:33;19.87;;;13.27;;
3873;SDS011;1952;50.872;6.692;2023-04-07T05:14:02;22.00;;;11.27;;
3873;SDS011;1952;50.872;6.692;2023-04-07T05:16:31;16.57;;;11.73;;
3873;SDS011;1952;50.872;6.692;2023-04-07T05:18:59;19.27;;;14.47;;
3873;SDS011;1952;50.872;6.692;2023-04-07T05:21:27;17.80;;;13.23;;
3873;SDS011;1952;50.872;6.692;2023-04-07T05:23:55;18.80;;;12.67;;
3873;SDS011;1952;50.872;6.692;2023-04-07T05:26:24;16.60;;;12.93;;
3873;SDS011;1952;50.872;6.692;2023-04-07T05:28:52;23.07;;;13.40;;
3873;SDS011;1952;50.872;6.692;2023-04-07T05:31:20;16.43;;;12.20;;
3873;SDS011;1952;50.872;6.692;2023-04-07T05:33:50;16.83;;;11.93;;
3873;SDS011;1952;50.872;6.692;2023-04-07T05:36:18;13.83;;;10.40;;
3873;SDS011;1952;50.872;6.692;2023-04-07T05:38:47;13.83;;;10.47;;
3873;SDS011;1952;50.872;6.692;2023-04-07T05:41:15;17.63;;;10.53;;
3873;SDS011;1952;50.872;6.692;2023-04-07T05:43:43;13.20;;;9.10;;
3873;SDS011;1952;50.872;6.692;2023-04-07T05:46:12;16.50;;;12.30;;
3873;SDS011;1952;50.872;6.692;2023-04-07T05:48:40;18.70;;;11.30;;
3873;SDS011;1952;50.872;6.692;2023-04-07T05:51:10;19.97;;;13.30;;
3873;SDS011;1952;50.872;6.692;2023-04-07T06:33:19;10.10;;;7.63;;
3873;SDS011;1952;50.872;6.692;2023-04-07T06:35:50;13.10;;;8.90;;
3873;SDS011;1952;50.872;6.692;2023-04-07T06:38:19;11.57;;;9.40;;
3873;SDS011;1952;50.872;6.692;2023-04-07T06:40:47;9.00;;;7.67;;
3873;SDS011;1952;50.872;6.692;2023-04-07T06:43:15;8.80;;;7.30;;
3873;SDS011;1952;50.872;6.692;2023-04-07T06:45:44;14.20;;;9.40;;
3873;SDS011;1952;50.872;6.692;2023-04-07T06:48:12;13.43;;;8.07;;
3873;SDS011;1952;50.872;6.692;2023-04-07T06:50:42;9.03;;;7.40;;
3873;SDS011;1952;50.872;6.692;2023-04-07T06:53:12;9.03;;;7.57;;
3873;SDS011;1952;50.872;6.692;2023-04-07T06:55:41;8.57;;;7.67;;
3873;SDS011;1952;50.872;6.692;2023-04-07T06:58:09;8.73;;;6.27;;
3873;SDS011;1952;50.872;6.692;2023-04-07T07:00:40;11.10;;;5.80;;
3873;SDS011;1952;50.872;6.692;2023-04-07T07:03:09;7.50;;;4.20;;
3873;SDS011;1952;50.872;6.692;2023-04-07T07:05:37;6.03;;;4.80;;
3873;SDS011;1952;50.872;6.692;2023-04-07T07:08:06;4.53;;;4.10;;
3873;SDS011;1952;50.872;6.692;2023-04-07T07:10:35;6.10;;;5.23;;
3873;SDS011;1952;50.872;6.692;2023-04-07T07:13:03;5.70;;;4.57;;
3873;SDS011;1952;50.872;6.692;2023-04-07T07:15:31;4.93;;;4.43;;
3873;SDS011;1952;50.872;6.692;2023-04-07T07:17:59;7.30;;;4.30;;
3873;SDS011;1952;50.872;6.692;2023-04-07T07:20:28;6.43;;;4.03;;
3873;SDS011;1952;50.872;6.692;2023-04-07T07:22:56;5.00;;;3.50;;
3873;SDS011;1952;50.872;6.692;2023-04-07T07:25:26;4.93;;;4.43;;
3873;SDS011;1952;50.872;6.692;2023-04-07T07:27:54;4.90;;;4.50;;
3873;SDS011;1952;50.872;6.692;2023-04-07T07:30:22;4.90;;;4.03;;
3873;SDS011;1952;50.872;6.692;2023-04-07T07:32:51;5.37;;;4.37;;
3873;SDS011;1952;50.872;6.692;2023-04-07T07:35:20;5.97;;;3.93;;
3873;SDS011;1952;50.872;6.692;2023-04-07T07:37:50;5.10;;;4.03;;
3873;SDS011;1952;50.872;6.692;2023-04-07T07:40:19;6.33;;;3.77;;
3873;SDS011;1952;50.872;6.692;2023-04-07T07:42:48;5.70;;;5.10;;
3873;SDS011;1952;50.872;6.692;2023-04-07T07:45:16;5.20;;;4.13;;
3873;SDS011;1952;50.872;6.692;2023-04-07T07:47:45;8.33;;;4.40;;
3873;SDS011;1952;50.872;6.692;2023-04-07T07:50:14;8.30;;;6.60;;
3873;SDS011;1952;50.872;6.692;2023-04-07T07:52:42;6.80;;;4.93;;
3873;SDS011;1952;50.872;6.692;2023-04-07T07:55:10;6.13;;;5.03;;
3873;SDS011;1952;50.872;6.692;2023-04-07T07:57:39;6.77;;;5.20;;
3873;SDS011;1952;50.872;6.692;2023-04-07T08:00:10;5.57;;;5.00;;
3873;SDS011;1952;50.872;6.692;2023-04-07T08:02:38;7.33;;;4.80;;
3873;SDS011;1952;50.872;6.692;2023-04-07T08:05:07;7.53;;;5.30;;
3873;SDS011;1952;50.872;6.692;2023-04-07T08:07:37;6.30;;;5.43;;
3873;SDS011;1952;50.872;6.692;2023-04-07T08:10:06;9.00;;;5.93;;
3873;SDS011;1952;50.872;6.692;2023-04-07T08:12:34;5.03;;;4.47;;
3873;SDS011;1952;50.872;6.692;2023-04-07T08:15:04;6.17;;;4.60;;
3873;SDS011;1952;50.872;6.692;2023-04-07T08:17:36;5.80;;;5.20;;
3873;SDS011;1952;50.872;6.692;2023-04-07T08:20:05;5.63;;;5.13;;
3873;SDS011;1952;50.872;6.692;2023-04-07T08:22:33;8.50;;;4.97;;
3873;SDS011;1952;50.872;6.692;2023-04-07T08:25:01;9.90;;;5.50;;
3873;SDS011;1952;50.872;6.692;2023-04-07T08:27:30;7.00;;;5.87;;
3873;SDS011;1952;50.872;6.692;2023-04-07T08:30:00;5.30;;;4.80;;
3873;SDS011;1952;50.872;6.692;2023-04-07T08:35:13;6.43;;;4.47;;
3873;SDS011;1952;50.872;6.692;2023-04-07T08:37:42;7.97;;;4.17;;
3873;SDS011;1952;50.872;6.692;2023-04-07T08:40:10;5.83;;;5.07;;
3873;SDS011;1952;50.872;6.692;2023-04-07T08:42:40;4.60;;;3.87;;
3873;SDS011;1952;50.872;6.692;2023-04-07T08:45:09;5.07;;;4.57;;
3873;SDS011;1952;50.872;6.692;2023-04-07T08:47:39;5.07;;;4.57;;
3873;SDS011;1952;50.872;6.692;2023-04-07T08:50:09;6.00;;;4.50;;
3873;SDS011;1952;50.872;6.692;2023-04-07T08:52:40;7.63;;;4.47;;
3873;SDS011;1952;50.872;6.692;2023-04-07T08:55:11;5.53;;;4.67;;
3873;SDS011;1952;50.872;6.692;2023-04-07T08:57:40;5.37;;;4.87;;
3873;SDS011;1952;50.872;6.692;2023-04-07T09:00:09;6.57;;;4.60;;
3873;SDS011;1952;50.872;6.692;2023-04-07T09:02:38;5.13;;;4.63;;
3873;SDS011;1952;50.872;6.692;2023-04-07T09:05:09;9.10;;;4.57;;
3873;SDS011;1952;50.872;6.692;2023-04-07T09:07:37;4.10;;;3.73;;
3873;SDS011;1952;50.872;6.692;2023-04-07T09:10:08;6.50;;;5.20;;
3873;SDS011;1952;50.872;6.692;2023-04-07T09:12:36;7.50;;;5.23;;
3873;SDS011;1952;50.872;6.692;2023-04-07T09:15:05;5.40;;;4.73;;
3873;SDS011;1952;50.872;6.692;2023-04-07T09:17:34;10.93;;;5.87;;
3873;SDS011;1952;50.872;6.692;2023-04-07T09:20:02;6.27;;;5.37;;
3873;SDS011;1952;50.872;6.692;2023-04-07T09:22:34;10.20;;;6.00;;
3873;SDS011;1952;50.872;6.692;2023-04-07T09:25:11;8.13;;;6.47;;
3873;SDS011;1952;50.872;6.692;2023-04-07T09:27:39;7.13;;;5.70;;
3873;SDS011;1952;50.872;6.692;2023-04-07T09:30:10;6.60;;;5.83;;
3873;SDS011;1952;50.872;6.692;2023-04-07T09:32:40;12.40;;;8.73;;
3873;SDS011;1952;50.872;6.692;2023-04-07T09:35:08;12.67;;;8.47;;
3873;SDS011;1952;50.872;6.692;2023-04-07T09:37:39;8.17;;;7.30;;
3873;SDS011;1952;50.872;6.692;2023-04-07T09:40:08;9.67;;;7.37;;
3873;SDS011;1952;50.872;6.692;2023-04-07T09:42:44;8.50;;;6.23;;
3873;SDS011;1952;50.872;6.692;2023-04-07T09:45:16;10.70;;;8.30;;
3873;SDS011;1952;50.872;6.692;2023-04-07T09:48:03;14.20;;;9.00;;
3873;SDS011;1952;50.872;6.692;2023-04-07T09:50:33;9.97;;;7.20;;
3873;SDS011;1952;50.872;6.692;2023-04-07T09:53:02;10.97;;;8.83;;
3873;SDS011;1952;50.872;6.692;2023-04-07T09:55:30;11.80;;;7.57;;
3873;SDS011;1952;50.872;6.692;2023-04-07T09:58:00;8.53;;;6.80;;
3873;SDS011;1952;50.872;6.692;2023-04-07T10:00:28;12.10;;;8.77;;
3873;SDS011;1952;50.872;6.692;2023-04-07T10:02:57;19.03;;;9.20;;
3873;SDS011;1952;50.872;6.692;2023-04-07T10:05:25;14.80;;;9.00;;
3873;SDS011;1952;50.872;6.692;2023-04-07T10:07:54;11.13;;;7.70;;
3873;SDS011;1952;50.872;6.692;2023-04-07T10:10:22;9.00;;;6.30;;
3873;SDS011;1952;50.872;6.692;2023-04-07T10:12:51;10.40;;;7.40;;
3873;SDS011;1952;50.872;6.692;2023-04-07T10:15:22;14.60;;;7.97;;
3873;SDS011;1952;50.872;6.692;2023-04-07T10:17:50;8.70;;;6.80;;
3873;SDS011;1952;50.872;6.692;2023-04-07T10:20:22;6.83;;;5.83;;
3873;SDS011;1952;50.872;6.692;2023-04-07T10:22:50;7.70;;;6.03;;
3873;SDS011;1952;50.872;6.692;2023-04-07T10:25:21;9.30;;;7.27;;
3873;SDS011;1952;50.872;6.692;2023-04-07T10:27:52;7.87;;;6.67;;
3873;SDS011;1952;50.872;6.692;2023-04-07T10:30:25;9.37;;;6.50;;
3873;SDS011;1952;50.872;6.692;2023-04-07T10:32:54;9.10;;;6.77;;
3873;SDS011;1952;50.872;6.692;2023-04-07T10:35:24;9.70;;;6.90;;
3873;SDS011;1952;50.872;6.692;2023-04-07T10:38:10;12.13;;;6.60;;
3873;SDS011;1952;50.872;6.692;2023-04-07T10:40:40;9.67;;;7.63;;
3873;SDS011;1952;50.872;6.692;2023-04-07T10:43:10;11.10;;;7.47;;
3873;SDS011;1952;50.872;6.692;2023-04-07T10:45:56;7.60;;;6.17;;
3873;SDS011;1952;50.872;6.692;2023-04-07T10:48:28;10.10;;;8.27;;
3873;SDS011;1952;50.872;6.692;2023-04-07T10:51:11;10.03;;;7.50;;
3873;SDS011;1952;50.872;6.692;2023-04-07T10:59:29;11.00;;;7.93;;
3873;SDS011;1952;50.872;6.692;2023-04-07T11:02:10;9.50;;;6.63;;
3873;SDS011;1952;50.872;6.692;2023-04-07T11:04:59;9.03;;;7.33;;
3873;SDS011;1952;50.872;6.692;2023-04-07T11:07:44;8.00;;;6.80;;
3873;SDS011;1952;50.872;6.692;2023-04-07T11:10:14;10.50;;;8.50;;
3873;SDS011;1952;50.872;6.692;2023-04-07T11:12:56;8.60;;;7.67;;
3873;SDS011;1952;50.872;6.692;2023-04-07T11:15:25;11.50;;;8.30;;
3873;SDS011;1952;50.872;6.692;2023-04-07T11:18:12;9.90;;;6.60;;
3873;SDS011;1952;50.872;6.692;2023-04-07T11:20:41;14.67;;;8.87;;
3873;SDS011;1952;50.872;6.692;2023-04-07T11:23:11;11.43;;;9.40;;
3873;SDS011;1952;50.872;6.692;2023-04-07T11:25:41;9.87;;;8.60;;
3873;SDS011;1952;50.872;6.692;2023-04-07T11:28:10;11.93;;;7.70;;
3873;SDS011;1952;50.872;6.692;2023-04-07T11:30:43;11.10;;;7.50;;
3873;SDS011;1952;50.872;6.692;2023-04-07T11:33:17;14.33;;;8.63;;
3873;SDS011;1952;50.872;6.692;2023-04-07T11:35:46;10.73;;;7.90;;
3873;SDS011;1952;50.872;6.692;2023-04-07T11:38:14;14.00;;;8.70;;
3873;SDS011;1952;50.872;6.692;2023-04-07T11:40:42;12.13;;;8.70;;
3873;SDS011;1952;50.872;6.692;2023-04-07T11:43:14;13.83;;;9.03;;
3873;SDS011;1952;50.872;6.692;2023-04-07T11:45:43;11.27;;;8.20;;
3873;SDS011;1952;50.872;6.692;2023-04-07T11:48:29;11.87;;;8.60;;
3873;SDS011;1952;50.872;6.692;2023-04-07T11:50:57;11.63;;;9.40;;
3873;SDS011;1952;50.872;6.692;2023-04-07T11:53:27;13.00;;;8.07;;
3873;SDS011;1952;50.872;6.692;2023-04-07T12:33:21;12.50;;;9.53;;
3873;SDS011;1952;50.872;6.692;2023-04-07T12:35:51;12.40;;;8.43;;
3873;SDS011;1952;50.872;6.692;2023-04-07T12:38:20;14.30;;;8.70;;
3873;SDS011;1952;50.872;6.692;2023-04-07T12:40:48;14.07;;;10.20;;
3873;SDS011;1952;50.872;6.692;2023-04-07T12:43:17;12.83;;;7.90;;
3873;SDS011;1952;50.872;6.692;2023-04-07T12:45:45;12.70;;;9.80;;
3873;SDS011;1952;50.872;6.692;2023-04-07T12:48:14;9.00;;;8.10;;
3873;SDS011;1952;50.872;6.692;2023-04-07T12:50:45;12.33;;;9.53;;
3873;SDS011;1952;50.872;6.692;2023-04-07T12:53:14;13.43;;;9.50;;
3873;SDS011;1952;50.872;6.692;2023-04-07T12:55:43;10.13;;;7.97;;
3873;SDS011;1952;50.872;6.692;2023-04-07T12:58:12;8.83;;;7.80;;
3873;SDS011;1952;50.872;6.692;2023-04-07T13:00:40;12.93;;;9.60;;
3873;SDS011;1952;50.872;6.692;2023-04-07T13:03:08;12.37;;;9.93;;
3873;SDS011;1952;50.872;6.692;2023-04-07T13:05:37;9.90;;;8.90;;
3873;SDS011;1952;50.872;6.692;2023-04-07T13:08:06;8.90;;;7.77;;
3873;SDS011;1952;50.872;6.692;2023-04-07T13:10:35;10.63;;;8.43;;
3873;SDS011;1952;50.872;6.692;2023-04-07T13:13:04;8.60;;;7.33;;
3873;SDS011;1952;50.872;6.692;2023-04-07T13:15:32;10.50;;;8.37;;
3873;SDS011;1952;50.872;6.692;2023-04-07T13:18:00;9.57;;;8.57;;
3873;SDS011;1952;50.872;6.692;2023-04-07T13:20:28;14.47;;;9.60;;
3873;SDS011;1952;50.872;6.692;2023-04-07T13:22:57;10.73;;;9.47;;
3873;SDS011;1952;50.872;6.692;2023-04-07T13:25:36;11.67;;;8.93;;
3873;SDS011;1952;50.872;6.692;2023-04-07T13:28:04;9.60;;;8.13;;
3873;SDS011;1952;50.872;6.692;2023-04-07T13:30:33;11.43;;;7.47;;
3873;SDS011;1952;50.872;6.692;2023-04-07T13:33:01;9.87;;;7.80;;
3873;SDS011;1952;50.872;6.692;2023-04-07T13:35:30;9.83;;;7.60;;
3873;SDS011;1952;50.872;6.692;2023-04-07T13:38:04;7.27;;;5.93;;
3873;SDS011;1952;50.872;6.692;2023-04-07T13:40:34;8.77;;;6.90;;
3873;SDS011;1952;50.872;6.692;2023-04-07T13:43:03;8.27;;;7.43;;
3873;SDS011;1952;50.872;6.692;2023-04-07T13:45:34;6.90;;;6.20;;
3873;SDS011;1952;50.872;6.692;2023-04-07T13:48:03;9.83;;;6.83;;
3873;SDS011;1952;50.872;6.692;2023-04-07T13:50:34;8.33;;;5.90;;
3873;SDS011;1952;50.872;6.692;2023-04-07T13:53:02;5.93;;;4.80;;
3873;SDS011;1952;50.872;6.692;2023-04-07T13:55:33;7.90;;;7.10;;
3873;SDS011;1952;50.872;6.692;2023-04-07T13:58:01;6.70;;;5.77;;
3873;SDS011;1952;50.872;6.692;2023-04-07T14:00:31;7.00;;;6.30;;
3873;SDS011;1952;50.872;6.692;2023-04-07T14:03:00;8.90;;;7.37;;
3873;SDS011;1952;50.872;6.692;2023-04-07T14:05:29;9.53;;;7.20;;
3873;SDS011;1952;50.872;6.692;2023-04-07T14:07:58;10.20;;;8.93;;
3873;SDS011;1952;50.872;6.692;2023-04-07T14:10:26;10.03;;;8.70;;
3873;SDS011;1952;50.872;6.692;2023-04-07T14:12:54;10.60;;;8.40;;
3873;SDS011;1952;50.872;6.692;2023-04-07T14:15:22;9.87;;;8.87;;
3873;SDS011;1952;50.872;6.692;2023-04-07T14:17:52;11.60;;;10.00;;
3873;SDS011;1952;50.872;6.692;2023-04-07T14:20:21;10.50;;;9.23;;
3873;SDS011;1952;50.872;6.692;2023-04-07T14:23:03;11.00;;;8.80;;
3873;SDS011;1952;50.872;6.692;2023-04-07T14:25:31;12.77;;;9.43;;
3873;SDS011;1952;50.872;6.692;2023-04-07T14:27:59;10.33;;;7.67;;
3873;SDS011;1952;50.872;6.692;2023-04-07T14:30:27;11.60;;;7.30;;
3873;SDS011;1952;50.872;6.692;2023-04-07T14:32:57;7.93;;;7.10;;
3873;SDS011;1952;50.872;6.692;2023-04-07T14:35:27;9.23;;;7.23;;
3873;SDS011;1952;50.872;6.692;2023-04-07T14:37:57;8.53;;;7.40;;
3873;SDS011;1952;50.872;6.692;2023-04-07T14:40:27;8.10;;;6.90;;
3873;SDS011;1952;50.872;6.692;2023-04-07T14:42:55;7.30;;;6.60;;
3873;SDS011;1952;50.872;6.692;2023-04-07T14:45:27;6.43;;;5.93;;
3873;SDS011;1952;50.872;6.692;2023-04-07T14:47:56;5.93;;;5.27;;
3873;SDS011;1952;50.872;6.692;2023-04-07T14:50:25;8.20;;;7.40;;
3873;SDS011;1952;50.872;6.692;2023-04-07T14:52:53;7.57;;;6.77;;
3873;SDS011;1952;50.872;6.692;2023-04-07T14:55:21;8.50;;;6.03;;
3873;SDS011;1952;50.872;6.692;2023-04-07T14:57:50;7.60;;;6.90;;
3873;SDS011;1952;50.872;6.692;2023-04-07T15:00:18;10.10;;;5.93;;
3873;SDS011;1952;50.872;6.692;2023-04-07T15:02:47;6.93;;;5.60;;
3873;SDS011;1952;50.872;6.692;2023-04-07T15:05:17;7.03;;;6.30;;
3873;SDS011;1952;50.872;6.692;2023-04-07T15:07:48;4.83;;;4.43;;
3873;SDS011;1952;50.872;6.692;2023-04-07T15:10:19;6.07;;;5.10;;
3873;SDS011;1952;50.872;6.692;2023-04-07T15:12:48;6.90;;;5.53;;
3873;SDS011;1952;50.872;6.692;2023-04-07T15:15:17;6.13;;;4.93;;
3873;SDS011;1952;50.872;6.692;2023-04-07T15:17:45;5.33;;;4.83;;
3873;SDS011;1952;50.872;6.692;2023-04-07T15:20:14;8.03;;;5.70;;
3873;SDS011;1952;50.872;6.692;2023-04-07T15:25:12;5.97;;;4.90;;
3873;SDS011;1952;50.872;6.692;2023-04-07T15:27:41;5.70;;;5.07;;
3873;SDS011;1952;50.872;6.692;2023-04-07T15:30:10;11.30;;;6.00;;
3873;SDS011;1952;50.872;6.692;2023-04-07T15:32:39;7.10;;;5.20;;
3873;SDS011;1952;50.872;6.692;2023-04-07T15:35:07;6.53;;;5.43;;
3873;SDS011;1952;50.872;6.692;2023-04-07T15:37:38;6.70;;;4.80;;
3873;SDS011;1952;50.872;6.692;2023-04-07T15:40:07;16.30;;;6.70;;
3873;SDS011;1952;50.872;6.692;2023-04-07T15:42:45;6.40;;;5.80;;
3873;SDS011;1952;50.872;6.692;2023-04-07T15:45:13;7.77;;;5.70;;
3873;SDS011;1952;50.872;6.692;2023-04-07T15:47:42;7.17;;;4.80;;
3873;SDS011;1952;50.872;6.692;2023-04-07T15:50:11;6.33;;;5.00;;
3873;SDS011;1952;50.872;6.692;2023-04-07T15:52:39;7.70;;;5.10;;
3873;SDS011;1952;50.872;6.692;2023-04-07T15:55:08;4.57;;;4.10;;
3873;SDS011;1952;50.872;6.692;2023-04-07T15:57:36;5.53;;;5.03;;
3873;SDS011;1952;50.872;6.692;2023-04-07T16:00:07;5.77;;;4.07;;
3873;SDS011;1952;50.872;6.692;2023-04-07T16:02:37;6.23;;;5.63;;
3873;SDS011;1952;50.872;6.692;2023-04-07T16:05:07;4.57;;;4.17;;
3873;SDS011;1952;50.872;6.692;2023-04-07T16:07:37;5.43;;;4.93;;
3873;SDS011;1952;50.872;6.692;2023-04-07T16:10:06;5.27;;;4.60;;
3873;SDS011;1952;50.872;6.692;2023-04-07T16:12:35;7.00;;;3.80;;
3873;SDS011;1952;50.872;6.692;2023-04-07T16:15:08;5.63;;;5.10;;
3873;SDS011;1952;50.872;6.692;2023-04-07T16:17:37;7.73;;;4.47;;
3873;SDS011;1952;50.872;6.692;2023-04-07T16:20:06;4.17;;;3.80;;
3873;SDS011;1952;50.872;6.692;2023-04-07T16:22:40;5.60;;;4.60;;
3873;SDS011;1952;50.872;6.692;2023-04-07T16:25:11;5.30;;;3.40;;
3873;SDS011;1952;50.872;6.692;2023-04-07T16:27:41;5.83;;;3.97;;
3873;SDS011;1952;50.872;6.692;2023-04-07T16:33:01;8.23;;;4.57;;
3873;SDS011;1952;50.872;6.692;2023-04-07T16:35:29;5.10;;;3.83;;
3873;SDS011;1952;50.872;6.692;2023-04-07T16:37:57;10.13;;;4.70;;
3873;SDS011;1952;50.872;6.692;2023-04-07T16:40:29;4.90;;;4.47;;
3873;SDS011;1952;50.872;6.692;2023-04-07T16:42:59;4.30;;;3.87;;
3873;SDS011;1952;50.872;6.692;2023-04-07T16:45:29;4.30;;;3.90;;
3873;SDS011;1952;50.872;6.692;2023-04-07T16:47:59;6.00;;;3.70;;
3873;SDS011;1952;50.872;6.692;2023-04-07T16:50:31;4.40;;;3.90;;
3873;SDS011;1952;50.872;6.692;2023-04-07T16:52:59;4.93;;;4.53;;
3873;SDS011;1952;50.872;6.692;2023-04-07T16:55:27;4.80;;;4.37;;
3873;SDS011;1952;50.872;6.692;2023-04-07T16:57:58;4.70;;;4.03;;
3873;SDS011;1952;50.872;6.692;2023-04-07T17:00:27;5.80;;;3.87;;
3873;SDS011;1952;50.872;6.692;2023-04-07T17:02:55;7.80;;;4.57;;
3873;SDS011;1952;50.872;6.692;2023-04-07T17:05:25;8.43;;;4.40;;
3873;SDS011;1952;50.872;6.692;2023-04-07T17:07:56;4.90;;;4.33;;
3873;SDS011;1952;50.872;6.692;2023-04-07T17:10:24;6.57;;;4.97;;
3873;SDS011;1952;50.872;6.692;2023-04-07T17:12:53;5.67;;;5.07;;
3873;SDS011;1952;50.872;6.692;2023-04-07T17:15:23;10.27;;;6.27;;
3873;SDS011;1952;50.872;6.692;2023-04-07T17:17:52;7.53;;;5.50;;
3873;SDS011;1952;50.872;6.692;2023-04-07T17:20:21;8.00;;;5.10;;